Terminal Aerodrome Forecast
Issued by NWS

Home | Current Version | Previous Version | Text Only | Print | Product List | Glossary On
Versions: 1 2 3 4 5 6 7 8 9 10 11 12 13 14 15
000
FTUS43 KOAX 102300
TAFCDR
TAF
KCDR 102320Z 1100/1124 03008KT P6SM VCTS SCT070CB
      TEMPO 1101/1102 5SM TSRA BKN050CB
     FM110200 VRB05KT P6SM BKN150
     FM111900 04007KT P6SM VCTS SCT060CB=

USA.gov is the U.S. government's official web portal to all federal, state and local government web resources and services.